Terminal Aerodrome Forecast
Issued by NWS

Home | Current Version | Previous Version | Text Only | Print | Product List | Glossary On
Versions: 1 2 3 4 5 6 7 8 9 10 11 12 13 14 15 16 17 18 19 20 21
000
FTUS46 KPDT 220500
TAFDLS
TAF
KDLS 220528Z 2206/2306 VRB04KT P6SM OVC100
     FM221000 VRB04KT P6SM -SHRA OVC070
     FM221800 VRB05KT P6SM -RA OVC050
     FM222300 VRB05KT P6SM OVC035=

USA.gov is the U.S. government's official web portal to all federal, state and local government web resources and services.